sensor_id;sensor_type;location;lat;lon;timestamp;P1;durP1;ratioP1;P2;durP2;ratioP2
10904;SDS011;5505;51.450;9.254;2023-06-10T00:02:03;5.13;;;4.73;;
10904;SDS011;5505;51.450;9.254;2023-06-10T00:04:51;5.30;;;4.90;;
10904;SDS011;5505;51.450;9.254;2023-06-10T00:07:38;6.23;;;5.17;;
10904;SDS011;5505;51.450;9.254;2023-06-10T00:10:26;4.97;;;4.57;;
10904;SDS011;5505;51.450;9.254;2023-06-10T00:13:17;6.20;;;5.17;;
10904;SDS011;5505;51.450;9.254;2023-06-10T00:16:04;5.60;;;5.10;;
10904;SDS011;5505;51.450;9.254;2023-06-10T00:18:51;5.70;;;5.20;;
10904;SDS011;5505;51.450;9.254;2023-06-10T00:21:40;5.45;;;4.95;;
10904;SDS011;5505;51.450;9.254;2023-06-10T00:24:30;5.50;;;4.73;;
10904;SDS011;5505;51.450;9.254;2023-06-10T00:27:17;5.37;;;4.97;;
10904;SDS011;5505;51.450;9.254;2023-06-10T00:30:06;5.60;;;4.50;;
10904;SDS011;5505;51.450;9.254;2023-06-10T00:32:54;6.10;;;4.77;;
10904;SDS011;5505;51.450;9.254;2023-06-10T00:35:41;5.13;;;4.73;;
10904;SDS011;5505;51.450;9.254;2023-06-10T00:38:28;5.83;;;5.07;;
10904;SDS011;5505;51.450;9.254;2023-06-10T00:41:15;5.50;;;4.97;;
10904;SDS011;5505;51.450;9.254;2023-06-10T00:44:02;5.73;;;5.10;;
10904;SDS011;5505;51.450;9.254;2023-06-10T00:46:51;6.17;;;5.13;;
10904;SDS011;5505;51.450;9.254;2023-06-10T00:49:40;5.40;;;4.90;;
10904;SDS011;5505;51.450;9.254;2023-06-10T00:52:28;6.00;;;5.20;;
10904;SDS011;5505;51.450;9.254;2023-06-10T00:55:16;5.90;;;4.97;;
10904;SDS011;5505;51.450;9.254;2023-06-10T00:58:03;5.80;;;5.30;;
10904;SDS011;5505;51.450;9.254;2023-06-10T01:00:51;5.80;;;5.30;;
10904;SDS011;5505;51.450;9.254;2023-06-10T01:03:40;6.13;;;5.60;;
10904;SDS011;5505;51.450;9.254;2023-06-10T01:06:31;6.20;;;5.13;;
10904;SDS011;5505;51.450;9.254;2023-06-10T01:09:33;6.00;;;5.40;;
10904;SDS011;5505;51.450;9.254;2023-06-10T01:12:27;5.90;;;5.33;;
10904;SDS011;5505;51.450;9.254;2023-06-10T01:15:18;6.57;;;4.90;;
10904;SDS011;5505;51.450;9.254;2023-06-10T01:18:06;5.57;;;5.00;;
10904;SDS011;5505;51.450;9.254;2023-06-10T01:20:56;8.27;;;5.10;;
10904;SDS011;5505;51.450;9.254;2023-06-10T01:23:44;5.90;;;5.30;;
10904;SDS011;5505;51.450;9.254;2023-06-10T01:26:32;6.73;;;5.10;;
10904;SDS011;5505;51.450;9.254;2023-06-10T01:29:25;6.67;;;5.17;;
10904;SDS011;5505;51.450;9.254;2023-06-10T01:32:21;6.13;;;5.27;;
10904;SDS011;5505;51.450;9.254;2023-06-10T01:35:13;6.03;;;5.43;;
10904;SDS011;5505;51.450;9.254;2023-06-10T01:38:03;5.83;;;5.27;;
10904;SDS011;5505;51.450;9.254;2023-06-10T01:40:52;6.53;;;5.50;;
10904;SDS011;5505;51.450;9.254;2023-06-10T01:43:42;6.33;;;5.73;;
10904;SDS011;5505;51.450;9.254;2023-06-10T01:46:30;6.07;;;5.50;;
10904;SDS011;5505;51.450;9.254;2023-06-10T01:49:17;6.60;;;5.73;;
10904;SDS011;5505;51.450;9.254;2023-06-10T01:52:04;8.30;;;6.20;;
10904;SDS011;5505;51.450;9.254;2023-06-10T01:54:52;6.27;;;5.03;;
10904;SDS011;5505;51.450;9.254;2023-06-10T01:57:41;6.53;;;5.43;;
10904;SDS011;5505;51.450;9.254;2023-06-10T02:00:28;7.30;;;5.27;;
10904;SDS011;5505;51.450;9.254;2023-06-10T02:03:15;6.10;;;5.50;;
10904;SDS011;5505;51.450;9.254;2023-06-10T02:06:02;6.47;;;5.50;;
10904;SDS011;5505;51.450;9.254;2023-06-10T02:08:49;7.43;;;5.27;;
10904;SDS011;5505;51.450;9.254;2023-06-10T02:11:36;7.57;;;5.30;;
10904;SDS011;5505;51.450;9.254;2023-06-10T02:14:25;6.40;;;5.80;;
10904;SDS011;5505;51.450;9.254;2023-06-10T02:17:12;6.50;;;5.83;;
10904;SDS011;5505;51.450;9.254;2023-06-10T02:20:00;6.73;;;6.13;;
10904;SDS011;5505;51.450;9.254;2023-06-10T02:22:49;6.73;;;6.10;;
10904;SDS011;5505;51.450;9.254;2023-06-10T02:25:38;9.03;;;6.00;;
10904;SDS011;5505;51.450;9.254;2023-06-10T02:28:25;7.43;;;5.90;;
10904;SDS011;5505;51.450;9.254;2023-06-10T02:31:14;7.67;;;6.03;;
10904;SDS011;5505;51.450;9.254;2023-06-10T02:34:03;8.03;;;6.23;;
10904;SDS011;5505;51.450;9.254;2023-06-10T02:36:50;6.97;;;6.27;;
10904;SDS011;5505;51.450;9.254;2023-06-10T02:39:37;6.60;;;5.97;;
10904;SDS011;5505;51.450;9.254;2023-06-10T02:42:24;6.40;;;5.80;;
10904;SDS011;5505;51.450;9.254;2023-06-10T02:45:11;11.07;;;6.20;;
10904;SDS011;5505;51.450;9.254;2023-06-10T02:48:00;8.40;;;5.83;;
10904;SDS011;5505;51.450;9.254;2023-06-10T02:50:47;6.70;;;6.00;;
10904;SDS011;5505;51.450;9.254;2023-06-10T02:53:34;7.47;;;5.63;;
10904;SDS011;5505;51.450;9.254;2023-06-10T02:56:21;6.70;;;6.00;;
10904;SDS011;5505;51.450;9.254;2023-06-10T02:59:08;9.40;;;5.43;;
10904;SDS011;5505;51.450;9.254;2023-06-10T03:01:56;6.70;;;6.10;;
10904;SDS011;5505;51.450;9.254;2023-06-10T03:04:46;10.57;;;5.67;;
10904;SDS011;5505;51.450;9.254;2023-06-10T03:07:36;7.27;;;5.60;;
10904;SDS011;5505;51.450;9.254;2023-06-10T03:10:23;6.90;;;5.93;;
10904;SDS011;5505;51.450;9.254;2023-06-10T03:13:10;6.37;;;5.50;;
10904;SDS011;5505;51.450;9.254;2023-06-10T03:15:57;6.67;;;5.37;;
10904;SDS011;5505;51.450;9.254;2023-06-10T03:18:45;8.70;;;5.50;;
10904;SDS011;5505;51.450;9.254;2023-06-10T03:21:33;6.03;;;5.43;;
10904;SDS011;5505;51.450;9.254;2023-06-10T03:24:20;8.90;;;5.60;;
10904;SDS011;5505;51.450;9.254;2023-06-10T03:27:07;6.60;;;5.97;;
10904;SDS011;5505;51.450;9.254;2023-06-10T03:29:55;6.03;;;5.53;;
10904;SDS011;5505;51.450;9.254;2023-06-10T03:32:42;7.30;;;6.17;;
10904;SDS011;5505;51.450;9.254;2023-06-10T03:35:29;7.10;;;6.33;;
10904;SDS011;5505;51.450;9.254;2023-06-10T03:38:18;6.67;;;6.00;;
10904;SDS011;5505;51.450;9.254;2023-06-10T03:41:05;8.27;;;5.00;;
10904;SDS011;5505;51.450;9.254;2023-06-10T03:43:52;7.23;;;5.77;;
10904;SDS011;5505;51.450;9.254;2023-06-10T03:46:40;7.20;;;5.47;;
10904;SDS011;5505;51.450;9.254;2023-06-10T03:49:27;6.20;;;5.60;;
10904;SDS011;5505;51.450;9.254;2023-06-10T03:52:14;7.80;;;5.83;;
10904;SDS011;5505;51.450;9.254;2023-06-10T03:55:03;10.63;;;6.70;;
10904;SDS011;5505;51.450;9.254;2023-06-10T03:57:51;7.00;;;6.37;;
10904;SDS011;5505;51.450;9.254;2023-06-10T04:00:38;8.40;;;6.60;;
10904;SDS011;5505;51.450;9.254;2023-06-10T04:03:27;8.87;;;7.30;;
10904;SDS011;5505;51.450;9.254;2023-06-10T04:06:14;8.30;;;6.57;;
10904;SDS011;5505;51.450;9.254;2023-06-10T04:09:02;9.23;;;6.93;;
10904;SDS011;5505;51.450;9.254;2023-06-10T04:11:50;8.27;;;6.60;;
10904;SDS011;5505;51.450;9.254;2023-06-10T04:14:38;7.20;;;6.13;;
10904;SDS011;5505;51.450;9.254;2023-06-10T04:17:25;8.33;;;6.03;;
10904;SDS011;5505;51.450;9.254;2023-06-10T04:20:12;6.37;;;5.77;;
10904;SDS011;5505;51.450;9.254;2023-06-10T04:22:59;10.43;;;6.40;;
10904;SDS011;5505;51.450;9.254;2023-06-10T04:25:47;8.73;;;6.10;;
10904;SDS011;5505;51.450;9.254;2023-06-10T04:28:35;7.47;;;6.33;;
10904;SDS011;5505;51.450;9.254;2023-06-10T04:31:22;6.93;;;6.23;;
10904;SDS011;5505;51.450;9.254;2023-06-10T04:34:09;7.60;;;6.80;;
10904;SDS011;5505;51.450;9.254;2023-06-10T04:36:56;9.27;;;6.57;;
10904;SDS011;5505;51.450;9.254;2023-06-10T04:39:43;7.57;;;6.00;;
10904;SDS011;5505;51.450;9.254;2023-06-10T04:42:31;7.00;;;6.30;;
10904;SDS011;5505;51.450;9.254;2023-06-10T04:45:19;8.23;;;6.10;;
10904;SDS011;5505;51.450;9.254;2023-06-10T04:48:06;7.40;;;6.20;;
10904;SDS011;5505;51.450;9.254;2023-06-10T04:50:53;7.13;;;6.40;;
10904;SDS011;5505;51.450;9.254;2023-06-10T04:53:41;7.60;;;6.63;;
10904;SDS011;5505;51.450;9.254;2023-06-10T04:56:29;8.70;;;6.30;;
10904;SDS011;5505;51.450;9.254;2023-06-10T04:59:16;7.90;;;6.80;;
10904;SDS011;5505;51.450;9.254;2023-06-10T05:02:05;7.43;;;6.73;;
10904;SDS011;5505;51.450;9.254;2023-06-10T05:04:52;10.23;;;6.30;;
10904;SDS011;5505;51.450;9.254;2023-06-10T05:07:40;9.07;;;6.37;;
10904;SDS011;5505;51.450;9.254;2023-06-10T05:10:27;7.40;;;6.10;;
10904;SDS011;5505;51.450;9.254;2023-06-10T05:13:16;9.67;;;6.23;;
10904;SDS011;5505;51.450;9.254;2023-06-10T05:16:04;7.33;;;6.10;;
10904;SDS011;5505;51.450;9.254;2023-06-10T05:18:53;6.90;;;6.20;;
10904;SDS011;5505;51.450;9.254;2023-06-10T05:21:40;6.27;;;5.47;;
10904;SDS011;5505;51.450;9.254;2023-06-10T05:24:27;6.80;;;6.10;;
10904;SDS011;5505;51.450;9.254;2023-06-10T05:27:14;9.33;;;6.20;;
10904;SDS011;5505;51.450;9.254;2023-06-10T05:30:02;7.70;;;5.50;;
10904;SDS011;5505;51.450;9.254;2023-06-10T05:32:49;7.43;;;5.57;;
10904;SDS011;5505;51.450;9.254;2023-06-10T05:35:38;6.67;;;5.20;;
10904;SDS011;5505;51.450;9.254;2023-06-10T05:38:26;7.17;;;4.73;;
10904;SDS011;5505;51.450;9.254;2023-06-10T05:41:13;8.20;;;5.50;;
10904;SDS011;5505;51.450;9.254;2023-06-10T05:44:00;6.97;;;5.40;;
10904;SDS011;5505;51.450;9.254;2023-06-10T05:46:47;6.20;;;5.53;;
10904;SDS011;5505;51.450;9.254;2023-06-10T05:49:34;7.77;;;5.60;;
10904;SDS011;5505;51.450;9.254;2023-06-10T05:52:22;8.00;;;5.47;;
10904;SDS011;5505;51.450;9.254;2023-06-10T05:55:10;11.03;;;5.73;;
10904;SDS011;5505;51.450;9.254;2023-06-10T05:58:00;8.57;;;4.77;;
10904;SDS011;5505;51.450;9.254;2023-06-10T06:00:47;6.30;;;4.93;;
10904;SDS011;5505;51.450;9.254;2023-06-10T06:03:34;8.17;;;4.40;;
10904;SDS011;5505;51.450;9.254;2023-06-10T06:06:21;5.23;;;4.17;;
10904;SDS011;5505;51.450;9.254;2023-06-10T06:09:10;4.33;;;3.93;;
10904;SDS011;5505;51.450;9.254;2023-06-10T06:11:58;6.23;;;3.60;;
10904;SDS011;5505;51.450;9.254;2023-06-10T06:14:45;4.30;;;3.90;;
10904;SDS011;5505;51.450;9.254;2023-06-10T06:17:33;4.20;;;3.80;;
10904;SDS011;5505;51.450;9.254;2023-06-10T06:20:21;5.67;;;4.23;;
10904;SDS011;5505;51.450;9.254;2023-06-10T06:23:08;4.73;;;3.83;;
10904;SDS011;5505;51.450;9.254;2023-06-10T06:25:57;5.77;;;3.90;;
10904;SDS011;5505;51.450;9.254;2023-06-10T06:28:44;5.50;;;3.70;;
10904;SDS011;5505;51.450;9.254;2023-06-10T06:31:31;5.00;;;3.77;;
10904;SDS011;5505;51.450;9.254;2023-06-10T06:34:18;4.83;;;3.57;;
10904;SDS011;5505;51.450;9.254;2023-06-10T06:37:06;4.77;;;3.60;;
10904;SDS011;5505;51.450;9.254;2023-06-10T06:39:53;3.77;;;3.20;;
10904;SDS011;5505;51.450;9.254;2023-06-10T06:42:42;4.10;;;3.60;;
10904;SDS011;5505;51.450;9.254;2023-06-10T06:45:29;4.27;;;3.37;;
10904;SDS011;5505;51.450;9.254;2023-06-10T06:48:16;6.03;;;3.70;;
10904;SDS011;5505;51.450;9.254;2023-06-10T06:51:03;7.00;;;3.20;;
10904;SDS011;5505;51.450;9.254;2023-06-10T06:53:50;4.67;;;3.10;;
10904;SDS011;5505;51.450;9.254;2023-06-10T06:56:40;4.03;;;3.10;;
10904;SDS011;5505;51.450;9.254;2023-06-10T06:59:28;5.23;;;3.17;;
10904;SDS011;5505;51.450;9.254;2023-06-10T07:02:15;6.17;;;3.00;;
10904;SDS011;5505;51.450;9.254;2023-06-10T07:05:04;4.50;;;2.97;;
10904;SDS011;5505;51.450;9.254;2023-06-10T07:07:51;4.97;;;3.10;;
10904;SDS011;5505;51.450;9.254;2023-06-10T07:10:40;4.60;;;3.00;;
10904;SDS011;5505;51.450;9.254;2023-06-10T07:13:27;4.37;;;2.80;;
10904;SDS011;5505;51.450;9.254;2023-06-10T07:16:16;3.70;;;3.00;;
10904;SDS011;5505;51.450;9.254;2023-06-10T07:19:06;3.83;;;2.60;;
10904;SDS011;5505;51.450;9.254;2023-06-10T07:21:53;4.97;;;3.17;;
10904;SDS011;5505;51.450;9.254;2023-06-10T07:24:40;4.07;;;2.93;;
10904;SDS011;5505;51.450;9.254;2023-06-10T07:27:27;3.27;;;2.90;;
10904;SDS011;5505;51.450;9.254;2023-06-10T07:30:14;4.27;;;3.00;;
10904;SDS011;5505;51.450;9.254;2023-06-10T07:33:03;3.63;;;2.73;;
10904;SDS011;5505;51.450;9.254;2023-06-10T07:35:53;4.80;;;2.70;;
10904;SDS011;5505;51.450;9.254;2023-06-10T07:38:40;3.27;;;2.90;;
10904;SDS011;5505;51.450;9.254;2023-06-10T07:41:28;3.33;;;2.83;;
10904;SDS011;5505;51.450;9.254;2023-06-10T07:44:15;4.30;;;3.20;;
10904;SDS011;5505;51.450;9.254;2023-06-10T07:47:02;5.07;;;3.10;;
10904;SDS011;5505;51.450;9.254;2023-06-10T07:49:53;4.20;;;3.00;;
10904;SDS011;5505;51.450;9.254;2023-06-10T07:52:40;3.77;;;2.83;;
10904;SDS011;5505;51.450;9.254;2023-06-10T07:55:27;3.13;;;2.70;;
10904;SDS011;5505;51.450;9.254;2023-06-10T07:58:15;3.50;;;3.00;;
10904;SDS011;5505;51.450;9.254;2023-06-10T08:01:02;5.00;;;2.80;;
10904;SDS011;5505;51.450;9.254;2023-06-10T08:03:49;3.67;;;3.10;;
10904;SDS011;5505;51.450;9.254;2023-06-10T08:06:37;5.43;;;2.93;;
10904;SDS011;5505;51.450;9.254;2023-06-10T08:09:24;5.03;;;2.70;;
10904;SDS011;5505;51.450;9.254;2023-06-10T08:12:11;7.63;;;3.27;;
10904;SDS011;5505;51.450;9.254;2023-06-10T08:14:58;5.90;;;3.23;;
10904;SDS011;5505;51.450;9.254;2023-06-10T08:17:45;2.97;;;2.60;;
10904;SDS011;5505;51.450;9.254;2023-06-10T08:20:33;2.80;;;2.60;;
10904;SDS011;5505;51.450;9.254;2023-06-10T08:23:21;3.40;;;2.77;;
10904;SDS011;5505;51.450;9.254;2023-06-10T08:26:08;3.13;;;2.70;;
10904;SDS011;5505;51.450;9.254;2023-06-10T08:28:55;3.93;;;2.73;;
10904;SDS011;5505;51.450;9.254;2023-06-10T08:31:44;3.57;;;2.60;;
10904;SDS011;5505;51.450;9.254;2023-06-10T08:34:32;3.47;;;2.57;;
10904;SDS011;5505;51.450;9.254;2023-06-10T08:37:20;4.83;;;2.90;;
10904;SDS011;5505;51.450;9.254;2023-06-10T08:40:09;4.40;;;2.77;;
10904;SDS011;5505;51.450;9.254;2023-06-10T08:42:59;3.00;;;2.50;;
10904;SDS011;5505;51.450;9.254;2023-06-10T08:45:51;5.47;;;3.00;;
10904;SDS011;5505;51.450;9.254;2023-06-10T08:48:42;4.30;;;3.00;;
10904;SDS011;5505;51.450;9.254;2023-06-10T08:51:30;4.60;;;2.77;;
10904;SDS011;5505;51.450;9.254;2023-06-10T08:54:20;3.83;;;2.70;;
10904;SDS011;5505;51.450;9.254;2023-06-10T08:57:12;5.33;;;2.77;;
10904;SDS011;5505;51.450;9.254;2023-06-10T09:00:00;3.30;;;2.63;;
10904;SDS011;5505;51.450;9.254;2023-06-10T09:02:48;5.20;;;3.13;;
10904;SDS011;5505;51.450;9.254;2023-06-10T09:05:35;4.17;;;3.00;;
10904;SDS011;5505;51.450;9.254;2023-06-10T09:08:24;5.43;;;3.00;;
10904;SDS011;5505;51.450;9.254;2023-06-10T09:11:11;4.40;;;2.90;;
10904;SDS011;5505;51.450;9.254;2023-06-10T09:14:00;5.63;;;3.03;;
10904;SDS011;5505;51.450;9.254;2023-06-10T09:16:47;6.23;;;3.07;;
10904;SDS011;5505;51.450;9.254;2023-06-10T09:19:35;7.63;;;3.07;;
10904;SDS011;5505;51.450;9.254;2023-06-10T09:22:23;4.20;;;3.00;;
10904;SDS011;5505;51.450;9.254;2023-06-10T09:25:12;3.97;;;3.10;;
10904;SDS011;5505;51.450;9.254;2023-06-10T09:27:59;3.63;;;3.20;;
10904;SDS011;5505;51.450;9.254;2023-06-10T09:30:48;3.33;;;3.00;;
10904;SDS011;5505;51.450;9.254;2023-06-10T09:33:37;6.80;;;3.27;;
10904;SDS011;5505;51.450;9.254;2023-06-10T09:36:25;3.43;;;2.80;;
10904;SDS011;5505;51.450;9.254;2023-06-10T09:39:15;4.87;;;2.83;;
10904;SDS011;5505;51.450;9.254;2023-06-10T09:42:05;2.93;;;2.60;;
10904;SDS011;5505;51.450;9.254;2023-06-10T09:45:03;3.77;;;3.27;;
10904;SDS011;5505;51.450;9.254;2023-06-10T09:47:53;7.28;;;3.45;;
10904;SDS011;5505;51.450;9.254;2023-06-10T09:50:44;6.40;;;2.80;;
10904;SDS011;5505;51.450;9.254;2023-06-10T09:53:33;4.13;;;2.93;;
10904;SDS011;5505;51.450;9.254;2023-06-10T09:56:20;3.93;;;2.93;;
10904;SDS011;5505;51.450;9.254;2023-06-10T09:59:08;3.67;;;2.90;;
10904;SDS011;5505;51.450;9.254;2023-06-10T10:01:55;3.72;;;2.80;;
10904;SDS011;5505;51.450;9.254;2023-06-10T10:04:44;3.30;;;2.90;;
10904;SDS011;5505;51.450;9.254;2023-06-10T10:07:31;3.10;;;2.67;;
10904;SDS011;5505;51.450;9.254;2023-06-10T10:10:18;6.27;;;2.97;;
10904;SDS011;5505;51.450;9.254;2023-06-10T10:13:07;7.97;;;2.90;;
10904;SDS011;5505;51.450;9.254;2023-06-10T10:15:54;3.27;;;2.93;;
10904;SDS011;5505;51.450;9.254;2023-06-10T10:18:46;5.93;;;3.10;;
10904;SDS011;5505;51.450;9.254;2023-06-10T10:21:43;3.13;;;2.77;;
10904;SDS011;5505;51.450;9.254;2023-06-10T10:24:36;4.87;;;3.10;;
10904;SDS011;5505;51.450;9.254;2023-06-10T10:27:27;2.97;;;2.67;;
10904;SDS011;5505;51.450;9.254;2023-06-10T10:30:25;4.27;;;3.10;;
10904;SDS011;5505;51.450;9.254;2023-06-10T10:33:16;4.53;;;2.60;;
10904;SDS011;5505;51.450;9.254;2023-06-10T10:36:05;42.92;;;4.18;;
10904;SDS011;5505;51.450;9.254;2023-06-10T10:38:55;6.45;;;2.95;;
10904;SDS011;5505;51.450;9.254;2023-06-10T10:41:43;4.50;;;2.97;;
10904;SDS011;5505;51.450;9.254;2023-06-10T10:44:31;16.10;;;3.63;;
10904;SDS011;5505;51.450;9.254;2023-06-10T10:47:19;5.70;;;3.00;;
10904;SDS011;5505;51.450;9.254;2023-06-10T10:50:12;4.53;;;2.90;;
10904;SDS011;5505;51.450;9.254;2023-06-10T10:53:02;4.93;;;3.13;;
10904;SDS011;5505;51.450;9.254;2023-06-10T10:55:58;7.25;;;3.17;;
10904;SDS011;5505;51.450;9.254;2023-06-10T10:59:01;4.32;;;2.80;;
10904;SDS011;5505;51.450;9.254;2023-06-10T11:01:50;5.22;;;2.88;;
10904;SDS011;5505;51.450;9.254;2023-06-10T11:04:38;5.30;;;3.22;;
10904;SDS011;5505;51.450;9.254;2023-06-10T11:07:31;4.70;;;3.13;;
10904;SDS011;5505;51.450;9.254;2023-06-10T11:10:20;5.10;;;3.10;;
10904;SDS011;5505;51.450;9.254;2023-06-10T11:13:18;4.78;;;2.70;;
10904;SDS011;5505;51.450;9.254;2023-06-10T11:16:06;8.48;;;3.20;;
10904;SDS011;5505;51.450;9.254;2023-06-10T11:18:56;6.95;;;2.80;;
10904;SDS011;5505;51.450;9.254;2023-06-10T11:21:59;4.18;;;2.75;;
10904;SDS011;5505;51.450;9.254;2023-06-10T11:24:49;11.33;;;3.33;;
10904;SDS011;5505;51.450;9.254;2023-06-10T11:27:37;6.30;;;2.80;;
10904;SDS011;5505;51.450;9.254;2023-06-10T11:30:27;6.10;;;2.85;;
10904;SDS011;5505;51.450;9.254;2023-06-10T11:33:21;3.90;;;2.78;;
10904;SDS011;5505;51.450;9.254;2023-06-10T11:36:09;3.80;;;2.85;;
10904;SDS011;5505;51.450;9.254;2023-06-10T11:38:56;5.15;;;3.25;;
10904;SDS011;5505;51.450;9.254;2023-06-10T11:41:45;3.25;;;2.72;;
10904;SDS011;5505;51.450;9.254;2023-06-10T11:44:32;11.15;;;2.97;;
10904;SDS011;5505;51.450;9.254;2023-06-10T11:47:24;4.45;;;2.72;;
10904;SDS011;5505;51.450;9.254;2023-06-10T11:50:12;3.13;;;2.47;;
10904;SDS011;5505;51.450;9.254;2023-06-10T11:52:59;3.85;;;3.00;;
10904;SDS011;5505;51.450;9.254;2023-06-10T11:55:47;5.17;;;2.60;;
10904;SDS011;5505;51.450;9.254;2023-06-10T11:58:36;3.45;;;2.78;;
10904;SDS011;5505;51.450;9.254;2023-06-10T12:01:24;4.00;;;2.88;;
10904;SDS011;5505;51.450;9.254;2023-06-10T12:04:14;4.05;;;2.88;;
10904;SDS011;5505;51.450;9.254;2023-06-10T12:07:03;4.93;;;2.80;;
10904;SDS011;5505;51.450;9.254;2023-06-10T12:09:58;3.53;;;2.85;;
10904;SDS011;5505;51.450;9.254;2023-06-10T12:12:46;3.10;;;2.75;;
10904;SDS011;5505;51.450;9.254;2023-06-10T12:15:33;4.90;;;2.70;;
10904;SDS011;5505;51.450;9.254;2023-06-10T12:18:20;3.20;;;2.90;;
10904;SDS011;5505;51.450;9.254;2023-06-10T12:21:19;3.45;;;2.80;;
10904;SDS011;5505;51.450;9.254;2023-06-10T12:24:09;4.28;;;3.13;;
10904;SDS011;5505;51.450;9.254;2023-06-10T12:26:57;5.17;;;3.10;;
10904;SDS011;5505;51.450;9.254;2023-06-10T12:29:50;5.15;;;2.88;;
10904;SDS011;5505;51.450;9.254;2023-06-10T12:32:42;16.20;;;5.93;;
10904;SDS011;5505;51.450;9.254;2023-06-10T12:35:30;5.50;;;3.50;;
10904;SDS011;5505;51.450;9.254;2023-06-10T12:38:22;4.95;;;2.72;;
10904;SDS011;5505;51.450;9.254;2023-06-10T12:41:12;6.43;;;2.93;;
10904;SDS011;5505;51.450;9.254;2023-06-10T12:43:59;3.60;;;2.53;;
10904;SDS011;5505;51.450;9.254;2023-06-10T12:46:53;4.17;;;2.97;;
10904;SDS011;5505;51.450;9.254;2023-06-10T12:49:41;7.00;;;3.03;;
10904;SDS011;5505;51.450;9.254;2023-06-10T12:52:28;3.53;;;2.73;;
10904;SDS011;5505;51.450;9.254;2023-06-10T12:55:17;6.27;;;3.17;;
10904;SDS011;5505;51.450;9.254;2023-06-10T12:58:04;3.53;;;2.75;;
10904;SDS011;5505;51.450;9.254;2023-06-10T13:00:51;4.40;;;2.95;;
10904;SDS011;5505;51.450;9.254;2023-06-10T13:03:38;6.60;;;2.90;;
10904;SDS011;5505;51.450;9.254;2023-06-10T13:06:26;5.33;;;3.10;;
10904;SDS011;5505;51.450;9.254;2023-06-10T13:09:14;4.10;;;2.90;;
10904;SDS011;5505;51.450;9.254;2023-06-10T13:12:03;5.03;;;2.70;;
10904;SDS011;5505;51.450;9.254;2023-06-10T13:14:51;5.27;;;2.80;;
10904;SDS011;5505;51.450;9.254;2023-06-10T13:17:39;9.20;;;3.10;;
10904;SDS011;5505;51.450;9.254;2023-06-10T13:20:26;6.87;;;2.77;;
10904;SDS011;5505;51.450;9.254;2023-06-10T13:23:13;4.97;;;2.80;;
10904;SDS011;5505;51.450;9.254;2023-06-10T13:26:00;5.43;;;2.90;;
10904;SDS011;5505;51.450;9.254;2023-06-10T13:28:50;6.32;;;2.90;;
10904;SDS011;5505;51.450;9.254;2023-06-10T13:31:38;3.28;;;2.92;;
10904;SDS011;5505;51.450;9.254;2023-06-10T13:34:25;11.07;;;3.17;;
10904;SDS011;5505;51.450;9.254;2023-06-10T13:37:12;3.95;;;3.00;;
10904;SDS011;5505;51.450;9.254;2023-06-10T13:39:59;3.72;;;3.00;;
10904;SDS011;5505;51.450;9.254;2023-06-10T13:42:46;3.88;;;2.80;;
10904;SDS011;5505;51.450;9.254;2023-06-10T13:45:37;6.43;;;3.00;;
10904;SDS011;5505;51.450;9.254;2023-06-10T13:48:24;5.65;;;2.95;;
10904;SDS011;5505;51.450;9.254;2023-06-10T13:51:11;6.65;;;3.00;;
10904;SDS011;5505;51.450;9.254;2023-06-10T13:53:58;7.00;;;3.08;;
10904;SDS011;5505;51.450;9.254;2023-06-10T13:56:45;5.10;;;3.20;;
10904;SDS011;5505;51.450;9.254;2023-06-10T13:59:33;4.60;;;2.90;;
10904;SDS011;5505;51.450;9.254;2023-06-10T14:02:21;5.20;;;3.10;;
10904;SDS011;5505;51.450;9.254;2023-06-10T14:05:08;9.00;;;3.05;;
10904;SDS011;5505;51.450;9.254;2023-06-10T14:07:55;4.15;;;2.67;;
10904;SDS011;5505;51.450;9.254;2023-06-10T14:10:42;4.97;;;2.70;;
10904;SDS011;5505;51.450;9.254;2023-06-10T14:13:30;5.13;;;3.20;;
10904;SDS011;5505;51.450;9.254;2023-06-10T14:16:17;6.35;;;3.17;;
10904;SDS011;5505;51.450;9.254;2023-06-10T14:19:05;4.70;;;3.25;;
10904;SDS011;5505;51.450;9.254;2023-06-10T14:21:52;8.02;;;3.00;;
10904;SDS011;5505;51.450;9.254;2023-06-10T14:24:40;4.45;;;3.33;;
10904;SDS011;5505;51.450;9.254;2023-06-10T14:27:27;3.97;;;3.20;;
10904;SDS011;5505;51.450;9.254;2023-06-10T14:30:15;7.47;;;3.30;;
10904;SDS011;5505;51.450;9.254;2023-06-10T14:33:02;5.60;;;3.40;;
10904;SDS011;5505;51.450;9.254;2023-06-10T14:35:52;3.83;;;3.10;;
10904;SDS011;5505;51.450;9.254;2023-06-10T14:38:39;4.65;;;3.30;;
10904;SDS011;5505;51.450;9.254;2023-06-10T14:41:26;5.63;;;3.37;;
10904;SDS011;5505;51.450;9.254;2023-06-10T14:44:13;5.15;;;2.97;;
10904;SDS011;5505;51.450;9.254;2023-06-10T14:47:00;5.43;;;2.90;;
10904;SDS011;5505;51.450;9.254;2023-06-10T14:49:48;3.50;;;3.05;;
10904;SDS011;5505;51.450;9.254;2023-06-10T14:52:37;7.30;;;3.05;;
10904;SDS011;5505;51.450;9.254;2023-06-10T14:55:24;3.97;;;3.27;;
10904;SDS011;5505;51.450;9.254;2023-06-10T14:58:11;4.53;;;2.72;;
10904;SDS011;5505;51.450;9.254;2023-06-10T15:00:58;5.50;;;3.05;;
10904;SDS011;5505;51.450;9.254;2023-06-10T15:03:45;9.40;;;3.35;;
10904;SDS011;5505;51.450;9.254;2023-06-10T15:06:32;5.23;;;3.10;;
10904;SDS011;5505;51.450;9.254;2023-06-10T15:09:21;4.63;;;3.27;;
10904;SDS011;5505;51.450;9.254;2023-06-10T15:12:08;3.20;;;2.90;;
10904;SDS011;5505;51.450;9.254;2023-06-10T15:14:56;3.83;;;3.00;;
10904;SDS011;5505;51.450;9.254;2023-06-10T15:17:43;4.28;;;2.80;;
10904;SDS011;5505;51.450;9.254;2023-06-10T15:20:31;4.47;;;2.87;;
10904;SDS011;5505;51.450;9.254;2023-06-10T15:23:18;7.60;;;2.83;;
10904;SDS011;5505;51.450;9.254;2023-06-10T15:26:06;2.90;;;2.60;;
10904;SDS011;5505;51.450;9.254;2023-06-10T15:28:53;3.00;;;2.30;;
10904;SDS011;5505;51.450;9.254;2023-06-10T15:31:40;4.27;;;2.70;;
10904;SDS011;5505;51.450;9.254;2023-06-10T15:34:28;5.33;;;2.80;;
10904;SDS011;5505;51.450;9.254;2023-06-10T15:37:15;3.72;;;2.60;;
10904;SDS011;5505;51.450;9.254;2023-06-10T15:40:02;2.93;;;2.50;;
10904;SDS011;5505;51.450;9.254;2023-06-10T15:42:51;3.90;;;2.90;;
10904;SDS011;5505;51.450;9.254;2023-06-10T15:45:38;3.08;;;2.80;;
10904;SDS011;5505;51.450;9.254;2023-06-10T15:48:25;4.05;;;2.88;;
10904;SDS011;5505;51.450;9.254;2023-06-10T15:51:12;2.95;;;2.63;;
10904;SDS011;5505;51.450;9.254;2023-06-10T15:53:59;4.78;;;2.92;;
10904;SDS011;5505;51.450;9.254;2023-06-10T15:56:46;3.83;;;3.00;;
10904;SDS011;5505;51.450;9.254;2023-06-10T15:59:35;5.30;;;2.90;;
10904;SDS011;5505;51.450;9.254;2023-06-10T16:02:22;5.10;;;3.00;;
10904;SDS011;5505;51.450;9.254;2023-06-10T16:05:09;4.60;;;3.50;;
10904;SDS011;5505;51.450;9.254;2023-06-10T16:07:56;5.40;;;2.90;;
10904;SDS011;5505;51.450;9.254;2023-06-10T16:10:44;4.20;;;2.80;;
10904;SDS011;5505;51.450;9.254;2023-06-10T16:13:31;4.10;;;2.90;;
10904;SDS011;5505;51.450;9.254;2023-06-10T16:16:19;3.40;;;2.83;;
10904;SDS011;5505;51.450;9.254;2023-06-10T16:19:06;3.53;;;2.93;;
10904;SDS011;5505;51.450;9.254;2023-06-10T16:21:53;4.22;;;3.17;;
10904;SDS011;5505;51.450;9.254;2023-06-10T16:24:41;4.07;;;2.83;;
10904;SDS011;5505;51.450;9.254;2023-06-10T16:27:28;4.53;;;2.70;;
10904;SDS011;5505;51.450;9.254;2023-06-10T16:30:15;4.53;;;2.83;;
10904;SDS011;5505;51.450;9.254;2023-06-10T16:33:03;5.97;;;3.00;;
10904;SDS011;5505;51.450;9.254;2023-06-10T16:35:51;3.87;;;3.20;;
10904;SDS011;5505;51.450;9.254;2023-06-10T16:38:38;2.88;;;2.67;;
10904;SDS011;5505;51.450;9.254;2023-06-10T16:41:25;3.20;;;2.90;;
10904;SDS011;5505;51.450;9.254;2023-06-10T16:44:13;2.92;;;2.60;;
10904;SDS011;5505;51.450;9.254;2023-06-10T16:47:02;3.90;;;2.97;;
10904;SDS011;5505;51.450;9.254;2023-06-10T16:49:50;3.00;;;2.70;;
10904;SDS011;5505;51.450;9.254;2023-06-10T16:52:37;3.30;;;2.97;;
10904;SDS011;5505;51.450;9.254;2023-06-10T16:55:24;2.93;;;2.73;;
10904;SDS011;5505;51.450;9.254;2023-06-10T16:58:12;49.00;;;5.00;;
10904;SDS011;5505;51.450;9.254;2023-06-10T17:01:01;5.87;;;3.13;;
10904;SDS011;5505;51.450;9.254;2023-06-10T17:03:52;3.30;;;3.00;;
10904;SDS011;5505;51.450;9.254;2023-06-10T17:06:40;3.37;;;3.07;;
10904;SDS011;5505;51.450;9.254;2023-06-10T17:09:27;3.77;;;2.90;;